sensor_id;sensor_type;location;lat;lon;timestamp;P1;durP1;ratioP1;P2;durP2;ratioP2
54263;SDS011;40178;53.042;6.406;2022-07-10T00:00:17;7.68;;;1.13;;
54263;SDS011;40178;53.042;6.406;2022-07-10T00:02:46;5.60;;;1.00;;
54263;SDS011;40178;53.042;6.406;2022-07-10T00:05:12;5.18;;;0.93;;
54263;SDS011;40178;53.042;6.406;2022-07-10T00:07:38;8.85;;;0.93;;
54263;SDS011;40178;53.042;6.406;2022-07-10T00:10:04;5.78;;;0.95;;
54263;SDS011;40178;53.042;6.406;2022-07-10T00:12:31;8.40;;;0.90;;
54263;SDS011;40178;53.042;6.406;2022-07-10T00:14:57;6.60;;;0.93;;
54263;SDS011;40178;53.042;6.406;2022-07-10T00:17:23;6.30;;;0.90;;
54263;SDS011;40178;53.042;6.406;2022-07-10T00:19:49;6.45;;;1.15;;
54263;SDS011;40178;53.042;6.406;2022-07-10T00:22:15;6.60;;;1.00;;
54263;SDS011;40178;53.042;6.406;2022-07-10T00:24:41;6.78;;;1.02;;
54263;SDS011;40178;53.042;6.406;2022-07-10T00:27:07;6.88;;;1.20;;
54263;SDS011;40178;53.042;6.406;2022-07-10T00:29:33;6.70;;;1.05;;
54263;SDS011;40178;53.042;6.406;2022-07-10T00:31:59;8.45;;;1.17;;
54263;SDS011;40178;53.042;6.406;2022-07-10T00:34:25;5.18;;;1.00;;
54263;SDS011;40178;53.042;6.406;2022-07-10T00:36:51;6.72;;;0.85;;
54263;SDS011;40178;53.042;6.406;2022-07-10T00:39:17;5.00;;;1.00;;
54263;SDS011;40178;53.042;6.406;2022-07-10T00:41:43;4.82;;;1.02;;
54263;SDS011;40178;53.042;6.406;2022-07-10T00:44:09;7.65;;;1.20;;
54263;SDS011;40178;53.042;6.406;2022-07-10T00:46:35;5.38;;;0.90;;
54263;SDS011;40178;53.042;6.406;2022-07-10T00:49:01;4.35;;;0.80;;
54263;SDS011;40178;53.042;6.406;2022-07-10T00:51:28;6.53;;;1.27;;
54263;SDS011;40178;53.042;6.406;2022-07-10T00:53:54;7.35;;;1.20;;
54263;SDS011;40178;53.042;6.406;2022-07-10T00:56:22;6.45;;;1.10;;
54263;SDS011;40178;53.042;6.406;2022-07-10T00:58:49;7.13;;;1.38;;
54263;SDS011;40178;53.042;6.406;2022-07-10T01:01:15;6.22;;;0.90;;
54263;SDS011;40178;53.042;6.406;2022-07-10T01:03:42;4.75;;;0.90;;
54263;SDS011;40178;53.042;6.406;2022-07-10T01:06:09;5.75;;;1.00;;
54263;SDS011;40178;53.042;6.406;2022-07-10T01:08:35;6.00;;;1.10;;
54263;SDS011;40178;53.042;6.406;2022-07-10T01:11:01;5.60;;;1.05;;
54263;SDS011;40178;53.042;6.406;2022-07-10T01:13:27;8.07;;;1.17;;
54263;SDS011;40178;53.042;6.406;2022-07-10T01:15:55;4.40;;;1.00;;
54263;SDS011;40178;53.042;6.406;2022-07-10T01:18:21;5.97;;;1.58;;
54263;SDS011;40178;53.042;6.406;2022-07-10T01:20:54;8.32;;;1.17;;
54263;SDS011;40178;53.042;6.406;2022-07-10T01:23:20;8.05;;;1.00;;
54263;SDS011;40178;53.042;6.406;2022-07-10T01:25:47;5.53;;;0.95;;
54263;SDS011;40178;53.042;6.406;2022-07-10T01:28:13;8.35;;;1.25;;
54263;SDS011;40178;53.042;6.406;2022-07-10T01:30:39;7.53;;;1.52;;
54263;SDS011;40178;53.042;6.406;2022-07-10T01:33:06;6.13;;;1.25;;
54263;SDS011;40178;53.042;6.406;2022-07-10T01:35:32;7.35;;;1.08;;
54263;SDS011;40178;53.042;6.406;2022-07-10T01:37:58;5.93;;;1.10;;
54263;SDS011;40178;53.042;6.406;2022-07-10T01:40:24;7.13;;;1.90;;
54263;SDS011;40178;53.042;6.406;2022-07-10T01:42:50;6.70;;;1.20;;
54263;SDS011;40178;53.042;6.406;2022-07-10T01:45:16;6.82;;;1.30;;
54263;SDS011;40178;53.042;6.406;2022-07-10T01:47:45;8.55;;;1.85;;
54263;SDS011;40178;53.042;6.406;2022-07-10T01:50:12;9.02;;;1.05;;
54263;SDS011;40178;53.042;6.406;2022-07-10T01:52:38;5.93;;;0.77;;
54263;SDS011;40178;53.042;6.406;2022-07-10T01:55:04;4.10;;;0.90;;
54263;SDS011;40178;53.042;6.406;2022-07-10T01:57:31;5.90;;;1.05;;
54263;SDS011;40178;53.042;6.406;2022-07-10T01:59:56;5.15;;;0.90;;
54263;SDS011;40178;53.042;6.406;2022-07-10T02:02:22;8.05;;;1.05;;
54263;SDS011;40178;53.042;6.406;2022-07-10T02:04:49;4.43;;;1.00;;
54263;SDS011;40178;53.042;6.406;2022-07-10T02:07:16;6.30;;;1.30;;
54263;SDS011;40178;53.042;6.406;2022-07-10T02:09:45;3.40;;;0.77;;
54263;SDS011;40178;53.042;6.406;2022-07-10T02:12:12;8.77;;;1.75;;
54263;SDS011;40178;53.042;6.406;2022-07-10T02:14:38;7.22;;;1.17;;
54263;SDS011;40178;53.042;6.406;2022-07-10T02:17:05;9.27;;;1.50;;
54263;SDS011;40178;53.042;6.406;2022-07-10T02:19:31;7.82;;;1.20;;
54263;SDS011;40178;53.042;6.406;2022-07-10T02:21:57;6.28;;;0.93;;
54263;SDS011;40178;53.042;6.406;2022-07-10T02:24:23;6.93;;;1.00;;
54263;SDS011;40178;53.042;6.406;2022-07-10T02:26:49;9.55;;;1.30;;
54263;SDS011;40178;53.042;6.406;2022-07-10T02:29:15;12.88;;;1.38;;
54263;SDS011;40178;53.042;6.406;2022-07-10T02:31:42;8.63;;;1.55;;
54263;SDS011;40178;53.042;6.406;2022-07-10T02:34:09;5.65;;;1.00;;
54263;SDS011;40178;53.042;6.406;2022-07-10T02:36:35;6.28;;;1.00;;
54263;SDS011;40178;53.042;6.406;2022-07-10T02:39:03;7.47;;;1.10;;
54263;SDS011;40178;53.042;6.406;2022-07-10T02:41:29;5.13;;;1.05;;
54263;SDS011;40178;53.042;6.406;2022-07-10T02:43:55;7.20;;;1.45;;
54263;SDS011;40178;53.042;6.406;2022-07-10T02:46:21;7.05;;;1.35;;
54263;SDS011;40178;53.042;6.406;2022-07-10T02:48:47;3.28;;;0.60;;
54263;SDS011;40178;53.042;6.406;2022-07-10T02:51:13;6.88;;;1.02;;
54263;SDS011;40178;53.042;6.406;2022-07-10T02:53:39;5.35;;;1.40;;
54263;SDS011;40178;53.042;6.406;2022-07-10T02:56:05;5.55;;;0.90;;
54263;SDS011;40178;53.042;6.406;2022-07-10T02:58:32;4.72;;;0.95;;
54263;SDS011;40178;53.042;6.406;2022-07-10T03:00:58;4.45;;;1.00;;
54263;SDS011;40178;53.042;6.406;2022-07-10T03:03:24;5.50;;;0.90;;
54263;SDS011;40178;53.042;6.406;2022-07-10T03:05:50;7.82;;;1.00;;
54263;SDS011;40178;53.042;6.406;2022-07-10T03:08:16;9.18;;;1.30;;
54263;SDS011;40178;53.042;6.406;2022-07-10T03:10:42;5.80;;;1.15;;
54263;SDS011;40178;53.042;6.406;2022-07-10T03:13:08;6.03;;;1.15;;
54263;SDS011;40178;53.042;6.406;2022-07-10T03:15:34;9.55;;;1.23;;
54263;SDS011;40178;53.042;6.406;2022-07-10T03:18:00;5.82;;;0.85;;
54263;SDS011;40178;53.042;6.406;2022-07-10T03:20:26;7.55;;;1.15;;
54263;SDS011;40178;53.042;6.406;2022-07-10T03:22:52;6.97;;;1.23;;
54263;SDS011;40178;53.042;6.406;2022-07-10T03:25:18;5.28;;;1.30;;
54263;SDS011;40178;53.042;6.406;2022-07-10T03:27:44;6.38;;;1.00;;
54263;SDS011;40178;53.042;6.406;2022-07-10T03:30:10;6.43;;;1.02;;
54263;SDS011;40178;53.042;6.406;2022-07-10T03:32:37;8.68;;;1.23;;
54263;SDS011;40178;53.042;6.406;2022-07-10T03:35:03;5.25;;;0.95;;
54263;SDS011;40178;53.042;6.406;2022-07-10T03:37:29;4.18;;;0.80;;
54263;SDS011;40178;53.042;6.406;2022-07-10T03:39:55;5.28;;;1.20;;
54263;SDS011;40178;53.042;6.406;2022-07-10T03:42:21;5.50;;;0.70;;
54263;SDS011;40178;53.042;6.406;2022-07-10T03:44:47;9.57;;;0.93;;
54263;SDS011;40178;53.042;6.406;2022-07-10T03:47:13;4.93;;;1.05;;
54263;SDS011;40178;53.042;6.406;2022-07-10T03:49:39;4.78;;;0.85;;
54263;SDS011;40178;53.042;6.406;2022-07-10T03:52:06;4.88;;;0.98;;
54263;SDS011;40178;53.042;6.406;2022-07-10T03:54:32;4.78;;;0.80;;
54263;SDS011;40178;53.042;6.406;2022-07-10T03:56:58;6.28;;;0.90;;
54263;SDS011;40178;53.042;6.406;2022-07-10T03:59:43;10.13;;;1.10;;
54263;SDS011;40178;53.042;6.406;2022-07-10T04:02:09;5.45;;;0.95;;
54263;SDS011;40178;53.042;6.406;2022-07-10T04:04:35;5.43;;;1.25;;
54263;SDS011;40178;53.042;6.406;2022-07-10T04:07:01;3.97;;;0.82;;
54263;SDS011;40178;53.042;6.406;2022-07-10T04:09:29;6.72;;;1.20;;
54263;SDS011;40178;53.042;6.406;2022-07-10T04:11:54;6.53;;;1.35;;
54263;SDS011;40178;53.042;6.406;2022-07-10T04:14:21;7.47;;;1.15;;
54263;SDS011;40178;53.042;6.406;2022-07-10T04:16:47;8.25;;;1.02;;
54263;SDS011;40178;53.042;6.406;2022-07-10T04:19:13;10.02;;;1.33;;
54263;SDS011;40178;53.042;6.406;2022-07-10T04:21:39;6.18;;;1.00;;
54263;SDS011;40178;53.042;6.406;2022-07-10T04:24:05;7.25;;;1.00;;
54263;SDS011;40178;53.042;6.406;2022-07-10T04:26:31;5.65;;;1.02;;
54263;SDS011;40178;53.042;6.406;2022-07-10T04:28:57;5.80;;;0.93;;
54263;SDS011;40178;53.042;6.406;2022-07-10T04:31:23;5.78;;;1.00;;
54263;SDS011;40178;53.042;6.406;2022-07-10T04:33:49;7.30;;;1.00;;
54263;SDS011;40178;53.042;6.406;2022-07-10T04:36:15;5.97;;;1.30;;
54263;SDS011;40178;53.042;6.406;2022-07-10T04:38:41;6.10;;;1.30;;
54263;SDS011;40178;53.042;6.406;2022-07-10T04:41:07;8.95;;;1.40;;
54263;SDS011;40178;53.042;6.406;2022-07-10T04:43:33;6.18;;;1.65;;
54263;SDS011;40178;53.042;6.406;2022-07-10T04:45:59;5.32;;;0.90;;
54263;SDS011;40178;53.042;6.406;2022-07-10T04:48:25;6.95;;;1.80;;
54263;SDS011;40178;53.042;6.406;2022-07-10T04:50:51;5.82;;;1.40;;
54263;SDS011;40178;53.042;6.406;2022-07-10T04:53:17;6.55;;;1.10;;
54263;SDS011;40178;53.042;6.406;2022-07-10T04:55:43;7.25;;;1.30;;
54263;SDS011;40178;53.042;6.406;2022-07-10T04:58:09;10.60;;;1.50;;
54263;SDS011;40178;53.042;6.406;2022-07-10T05:00:35;6.45;;;1.33;;
54263;SDS011;40178;53.042;6.406;2022-07-10T05:03:01;9.85;;;1.80;;
54263;SDS011;40178;53.042;6.406;2022-07-10T05:05:27;6.63;;;1.30;;
54263;SDS011;40178;53.042;6.406;2022-07-10T05:07:53;10.07;;;2.55;;
54263;SDS011;40178;53.042;6.406;2022-07-10T05:10:19;6.82;;;1.38;;
54263;SDS011;40178;53.042;6.406;2022-07-10T05:12:45;8.57;;;1.60;;
54263;SDS011;40178;53.042;6.406;2022-07-10T05:15:12;5.18;;;1.30;;
54263;SDS011;40178;53.042;6.406;2022-07-10T05:17:37;8.18;;;1.40;;
54263;SDS011;40178;53.042;6.406;2022-07-10T05:20:04;9.93;;;1.40;;
54263;SDS011;40178;53.042;6.406;2022-07-10T05:22:31;8.63;;;1.80;;
54263;SDS011;40178;53.042;6.406;2022-07-10T05:24:57;7.50;;;1.50;;
54263;SDS011;40178;53.042;6.406;2022-07-10T05:27:23;6.18;;;1.38;;
54263;SDS011;40178;53.042;6.406;2022-07-10T05:29:49;6.45;;;1.10;;
54263;SDS011;40178;53.042;6.406;2022-07-10T05:32:16;7.90;;;1.45;;
54263;SDS011;40178;53.042;6.406;2022-07-10T05:34:42;11.48;;;1.90;;
54263;SDS011;40178;53.042;6.406;2022-07-10T05:37:08;8.68;;;1.63;;
54263;SDS011;40178;53.042;6.406;2022-07-10T05:39:34;9.07;;;1.48;;
54263;SDS011;40178;53.042;6.406;2022-07-10T05:42:00;9.40;;;1.58;;
54263;SDS011;40178;53.042;6.406;2022-07-10T05:44:26;10.68;;;1.52;;
54263;SDS011;40178;53.042;6.406;2022-07-10T05:46:52;7.85;;;1.13;;
54263;SDS011;40178;53.042;6.406;2022-07-10T05:49:18;9.40;;;1.90;;
54263;SDS011;40178;53.042;6.406;2022-07-10T05:51:44;7.82;;;1.48;;
54263;SDS011;40178;53.042;6.406;2022-07-10T05:54:10;9.20;;;1.30;;
54263;SDS011;40178;53.042;6.406;2022-07-10T05:56:36;4.88;;;1.35;;
54263;SDS011;40178;53.042;6.406;2022-07-10T05:59:02;8.93;;;1.25;;
54263;SDS011;40178;53.042;6.406;2022-07-10T06:01:29;6.60;;;1.20;;
54263;SDS011;40178;53.042;6.406;2022-07-10T06:03:55;8.52;;;1.27;;
54263;SDS011;40178;53.042;6.406;2022-07-10T06:06:21;7.95;;;1.65;;
54263;SDS011;40178;53.042;6.406;2022-07-10T06:08:47;11.45;;;2.00;;
54263;SDS011;40178;53.042;6.406;2022-07-10T06:11:14;8.05;;;1.25;;
54263;SDS011;40178;53.042;6.406;2022-07-10T06:13:41;10.20;;;2.00;;
54263;SDS011;40178;53.042;6.406;2022-07-10T06:16:07;9.23;;;2.50;;
54263;SDS011;40178;53.042;6.406;2022-07-10T06:18:33;8.48;;;1.70;;
54263;SDS011;40178;53.042;6.406;2022-07-10T06:20:59;6.75;;;1.30;;
54263;SDS011;40178;53.042;6.406;2022-07-10T06:23:25;6.95;;;1.05;;
54263;SDS011;40178;53.042;6.406;2022-07-10T06:25:51;6.28;;;1.30;;
54263;SDS011;40178;53.042;6.406;2022-07-10T06:28:17;6.28;;;1.60;;
54263;SDS011;40178;53.042;6.406;2022-07-10T06:30:44;7.82;;;1.33;;
54263;SDS011;40178;53.042;6.406;2022-07-10T06:33:11;5.35;;;1.08;;
54263;SDS011;40178;53.042;6.406;2022-07-10T06:35:37;4.95;;;1.65;;
54263;SDS011;40178;53.042;6.406;2022-07-10T06:38:03;7.22;;;1.10;;
54263;SDS011;40178;53.042;6.406;2022-07-10T06:40:29;5.70;;;1.20;;
54263;SDS011;40178;53.042;6.406;2022-07-10T06:42:55;6.57;;;1.30;;
54263;SDS011;40178;53.042;6.406;2022-07-10T06:45:21;7.35;;;1.27;;
54263;SDS011;40178;53.042;6.406;2022-07-10T06:47:47;4.32;;;1.35;;
54263;SDS011;40178;53.042;6.406;2022-07-10T06:50:26;4.30;;;0.98;;
54263;SDS011;40178;53.042;6.406;2022-07-10T06:52:55;5.78;;;1.38;;
54263;SDS011;40178;53.042;6.406;2022-07-10T06:55:21;7.15;;;1.38;;
54263;SDS011;40178;53.042;6.406;2022-07-10T06:57:47;6.38;;;1.38;;
54263;SDS011;40178;53.042;6.406;2022-07-10T07:00:13;7.63;;;1.40;;
54263;SDS011;40178;53.042;6.406;2022-07-10T07:02:41;6.10;;;1.35;;
54263;SDS011;40178;53.042;6.406;2022-07-10T07:05:07;7.25;;;1.30;;
54263;SDS011;40178;53.042;6.406;2022-07-10T07:07:33;4.20;;;1.40;;
54263;SDS011;40178;53.042;6.406;2022-07-10T07:09:59;8.32;;;1.33;;
54263;SDS011;40178;53.042;6.406;2022-07-10T07:12:25;6.75;;;1.30;;
54263;SDS011;40178;53.042;6.406;2022-07-10T07:14:51;4.38;;;1.10;;
54263;SDS011;40178;53.042;6.406;2022-07-10T07:17:17;6.90;;;1.33;;
54263;SDS011;40178;53.042;6.406;2022-07-10T07:19:47;4.32;;;1.52;;
54263;SDS011;40178;53.042;6.406;2022-07-10T07:22:32;5.20;;;1.15;;
54263;SDS011;40178;53.042;6.406;2022-07-10T07:25:17;6.47;;;1.35;;
54263;SDS011;40178;53.042;6.406;2022-07-10T07:27:43;5.22;;;1.20;;
54263;SDS011;40178;53.042;6.406;2022-07-10T07:30:10;5.35;;;1.30;;
54263;SDS011;40178;53.042;6.406;2022-07-10T07:32:36;6.97;;;1.23;;
54263;SDS011;40178;53.042;6.406;2022-07-10T07:35:03;3.70;;;0.82;;
54263;SDS011;40178;53.042;6.406;2022-07-10T07:40:05;8.10;;;1.08;;
54263;SDS011;40178;53.042;6.406;2022-07-10T07:42:31;4.80;;;0.80;;
54263;SDS011;40178;53.042;6.406;2022-07-10T07:44:57;6.05;;;1.02;;
54263;SDS011;40178;53.042;6.406;2022-07-10T07:47:23;3.13;;;0.77;;
54263;SDS011;40178;53.042;6.406;2022-07-10T07:49:49;3.17;;;0.73;;
54263;SDS011;40178;53.042;6.406;2022-07-10T07:52:15;5.03;;;1.15;;
54263;SDS011;40178;53.042;6.406;2022-07-10T07:54:41;3.95;;;0.88;;
54263;SDS011;40178;53.042;6.406;2022-07-10T07:57:07;4.15;;;0.88;;
54263;SDS011;40178;53.042;6.406;2022-07-10T07:59:33;3.90;;;1.00;;
54263;SDS011;40178;53.042;6.406;2022-07-10T08:02:00;3.25;;;0.82;;
54263;SDS011;40178;53.042;6.406;2022-07-10T08:04:26;5.35;;;0.80;;
54263;SDS011;40178;53.042;6.406;2022-07-10T08:06:52;3.33;;;0.60;;
54263;SDS011;40178;53.042;6.406;2022-07-10T08:09:19;5.97;;;0.70;;
54263;SDS011;40178;53.042;6.406;2022-07-10T08:11:45;3.67;;;0.70;;
54263;SDS011;40178;53.042;6.406;2022-07-10T08:14:11;5.35;;;0.80;;
54263;SDS011;40178;53.042;6.406;2022-07-10T08:16:37;3.95;;;1.10;;
54263;SDS011;40178;53.042;6.406;2022-07-10T08:19:04;5.40;;;0.90;;
54263;SDS011;40178;53.042;6.406;2022-07-10T08:21:30;4.43;;;1.00;;
54263;SDS011;40178;53.042;6.406;2022-07-10T08:23:57;6.15;;;1.10;;
54263;SDS011;40178;53.042;6.406;2022-07-10T08:26:23;5.75;;;1.00;;
54263;SDS011;40178;53.042;6.406;2022-07-10T08:28:49;7.22;;;1.85;;
54263;SDS011;40178;53.042;6.406;2022-07-10T08:31:15;5.85;;;1.55;;
54263;SDS011;40178;53.042;6.406;2022-07-10T08:33:41;9.48;;;1.30;;
54263;SDS011;40178;53.042;6.406;2022-07-10T08:36:08;5.60;;;1.38;;
54263;SDS011;40178;53.042;6.406;2022-07-10T08:38:34;5.07;;;1.13;;
54263;SDS011;40178;53.042;6.406;2022-07-10T08:41:00;4.53;;;1.27;;
54263;SDS011;40178;53.042;6.406;2022-07-10T08:43:27;5.00;;;1.35;;
54263;SDS011;40178;53.042;6.406;2022-07-10T08:45:53;3.72;;;1.23;;
54263;SDS011;40178;53.042;6.406;2022-07-10T08:48:23;5.80;;;1.52;;
54263;SDS011;40178;53.042;6.406;2022-07-10T08:50:53;5.25;;;1.45;;
54263;SDS011;40178;53.042;6.406;2022-07-10T08:55:48;4.57;;;1.48;;
54263;SDS011;40178;53.042;6.406;2022-07-10T08:58:14;5.97;;;1.80;;
54263;SDS011;40178;53.042;6.406;2022-07-10T09:00:40;7.07;;;1.75;;
54263;SDS011;40178;53.042;6.406;2022-07-10T09:03:10;8.05;;;1.50;;
54263;SDS011;40178;53.042;6.406;2022-07-10T09:05:36;5.32;;;1.40;;
54263;SDS011;40178;53.042;6.406;2022-07-10T09:08:02;5.90;;;2.17;;
54263;SDS011;40178;53.042;6.406;2022-07-10T09:10:28;6.47;;;1.70;;
54263;SDS011;40178;53.042;6.406;2022-07-10T09:12:58;6.68;;;1.85;;
54263;SDS011;40178;53.042;6.406;2022-07-10T09:15:31;4.97;;;1.58;;
54263;SDS011;40178;53.042;6.406;2022-07-10T09:17:59;7.22;;;1.85;;
54263;SDS011;40178;53.042;6.406;2022-07-10T09:20:26;7.68;;;1.98;;
54263;SDS011;40178;53.042;6.406;2022-07-10T09:22:52;6.22;;;1.67;;
54263;SDS011;40178;53.042;6.406;2022-07-10T09:25:18;5.20;;;1.70;;
54263;SDS011;40178;53.042;6.406;2022-07-10T09:27:51;5.60;;;2.00;;
54263;SDS011;40178;53.042;6.406;2022-07-10T09:30:33;7.93;;;2.28;;
54263;SDS011;40178;53.042;6.406;2022-07-10T09:35:57;4.72;;;1.80;;
54263;SDS011;40178;53.042;6.406;2022-07-10T09:41:11;6.82;;;1.88;;
54263;SDS011;40178;53.042;6.406;2022-07-10T09:43:43;6.38;;;2.00;;
54263;SDS011;40178;53.042;6.406;2022-07-10T09:46:13;9.52;;;1.80;;
54263;SDS011;40178;53.042;6.406;2022-07-10T09:48:39;5.60;;;1.88;;
54263;SDS011;40178;53.042;6.406;2022-07-10T09:51:06;4.75;;;1.90;;
54263;SDS011;40178;53.042;6.406;2022-07-10T09:53:42;9.10;;;1.88;;
54263;SDS011;40178;53.042;6.406;2022-07-10T09:56:09;5.20;;;1.90;;
54263;SDS011;40178;53.042;6.406;2022-07-10T09:58:35;4.82;;;2.05;;
54263;SDS011;40178;53.042;6.406;2022-07-10T10:01:02;6.97;;;2.22;;
54263;SDS011;40178;53.042;6.406;2022-07-10T10:03:30;6.60;;;1.80;;
54263;SDS011;40178;53.042;6.406;2022-07-10T10:06:01;6.90;;;2.60;;
54263;SDS011;40178;53.042;6.406;2022-07-10T10:08:32;5.50;;;1.88;;
54263;SDS011;40178;53.042;6.406;2022-07-10T10:11:01;6.33;;;1.90;;
54263;SDS011;40178;53.042;6.406;2022-07-10T10:13:29;5.90;;;2.00;;
54263;SDS011;40178;53.042;6.406;2022-07-10T10:15:56;6.85;;;2.33;;
54263;SDS011;40178;53.042;6.406;2022-07-10T10:18:22;5.43;;;1.75;;
54263;SDS011;40178;53.042;6.406;2022-07-10T10:20:49;6.50;;;2.30;;
54263;SDS011;40178;53.042;6.406;2022-07-10T10:23:16;4.32;;;2.03;;
54263;SDS011;40178;53.042;6.406;2022-07-10T10:25:43;8.65;;;1.90;;
54263;SDS011;40178;53.042;6.406;2022-07-10T10:28:10;7.60;;;2.63;;
54263;SDS011;40178;53.042;6.406;2022-07-10T10:30:38;8.52;;;2.50;;
54263;SDS011;40178;53.042;6.406;2022-07-10T10:33:40;10.57;;;2.60;;
54263;SDS011;40178;53.042;6.406;2022-07-10T10:35:50;6.93;;;2.47;;
54263;SDS011;40178;53.042;6.406;2022-07-10T10:38:16;7.80;;;2.60;;
54263;SDS011;40178;53.042;6.406;2022-07-10T10:40:42;6.63;;;2.17;;
54263;SDS011;40178;53.042;6.406;2022-07-10T10:43:16;5.22;;;2.13;;
54263;SDS011;40178;53.042;6.406;2022-07-10T10:45:48;8.73;;;2.53;;
54263;SDS011;40178;53.042;6.406;2022-07-10T10:48:15;6.25;;;2.30;;
54263;SDS011;40178;53.042;6.406;2022-07-10T10:50:42;5.65;;;1.77;;
54263;SDS011;40178;53.042;6.406;2022-07-10T10:53:29;5.88;;;1.80;;
54263;SDS011;40178;53.042;6.406;2022-07-10T10:58:36;5.18;;;1.95;;
54263;SDS011;40178;53.042;6.406;2022-07-10T11:01:05;7.75;;;1.98;;
54263;SDS011;40178;53.042;6.406;2022-07-10T11:03:31;6.50;;;1.90;;
54263;SDS011;40178;53.042;6.406;2022-07-10T11:05:57;5.72;;;1.38;;
54263;SDS011;40178;53.042;6.406;2022-07-10T11:11:04;7.25;;;1.92;;
54263;SDS011;40178;53.042;6.406;2022-07-10T11:13:47;9.30;;;1.80;;
54263;SDS011;40178;53.042;6.406;2022-07-10T11:16:15;6.07;;;1.20;;
54263;SDS011;40178;53.042;6.406;2022-07-10T11:18:41;8.55;;;1.60;;
54263;SDS011;40178;53.042;6.406;2022-07-10T11:21:09;5.32;;;1.50;;
54263;SDS011;40178;53.042;6.406;2022-07-10T11:24:04;6.43;;;1.55;;
54263;SDS011;40178;53.042;6.406;2022-07-10T11:26:36;5.25;;;1.35;;
54263;SDS011;40178;53.042;6.406;2022-07-10T11:29:03;4.78;;;1.33;;
54263;SDS011;40178;53.042;6.406;2022-07-10T11:31:32;7.28;;;1.67;;
54263;SDS011;40178;53.042;6.406;2022-07-10T11:34:03;5.38;;;1.40;;
54263;SDS011;40178;53.042;6.406;2022-07-10T11:36:29;5.90;;;1.70;;
54263;SDS011;40178;53.042;6.406;2022-07-10T11:41:23;4.65;;;1.60;;
54263;SDS011;40178;53.042;6.406;2022-07-10T11:43:50;6.45;;;1.70;;
54263;SDS011;40178;53.042;6.406;2022-07-10T11:46:17;7.25;;;2.00;;
54263;SDS011;40178;53.042;6.406;2022-07-10T11:48:44;6.88;;;1.75;;
54263;SDS011;40178;53.042;6.406;2022-07-10T11:51:30;5.53;;;1.30;;
54263;SDS011;40178;53.042;6.406;2022-07-10T11:54:00;4.53;;;1.80;;
54263;SDS011;40178;53.042;6.406;2022-07-10T11:56:27;5.20;;;1.80;;
54263;SDS011;40178;53.042;6.406;2022-07-10T11:58:58;6.25;;;1.60;;
54263;SDS011;40178;53.042;6.406;2022-07-10T12:01:24;4.35;;;1.45;;
54263;SDS011;40178;53.042;6.406;2022-07-10T12:03:57;11.68;;;3.25;;
54263;SDS011;40178;53.042;6.406;2022-07-10T12:06:24;5.35;;;1.67;;
54263;SDS011;40178;53.042;6.406;2022-07-10T12:08:50;6.95;;;1.88;;
54263;SDS011;40178;53.042;6.406;2022-07-10T12:11:17;6.70;;;1.80;;
54263;SDS011;40178;53.042;6.406;2022-07-10T12:13:44;6.03;;;1.50;;
54263;SDS011;40178;53.042;6.406;2022-07-10T12:16:10;4.93;;;1.85;;
54263;SDS011;40178;53.042;6.406;2022-07-10T12:18:36;6.07;;;1.85;;
54263;SDS011;40178;53.042;6.406;2022-07-10T12:21:03;6.63;;;1.75;;
54263;SDS011;40178;53.042;6.406;2022-07-10T12:23:29;6.50;;;1.65;;
54263;SDS011;40178;53.042;6.406;2022-07-10T12:25:56;6.43;;;1.42;;
54263;SDS011;40178;53.042;6.406;2022-07-10T12:28:22;4.90;;;1.73;;
54263;SDS011;40178;53.042;6.406;2022-07-10T12:30:48;8.43;;;1.40;;
54263;SDS011;40178;53.042;6.406;2022-07-10T12:33:15;6.32;;;1.52;;
54263;SDS011;40178;53.042;6.406;2022-07-10T12:38:15;7.18;;;1.20;;
54263;SDS011;40178;53.042;6.406;2022-07-10T12:40:41;4.93;;;1.33;;
54263;SDS011;40178;53.042;6.406;2022-07-10T12:43:07;6.93;;;1.33;;
54263;SDS011;40178;53.042;6.406;2022-07-10T12:45:36;5.93;;;1.30;;
54263;SDS011;40178;53.042;6.406;2022-07-10T12:48:03;6.30;;;1.30;;
54263;SDS011;40178;53.042;6.406;2022-07-10T12:50:30;6.90;;;1.52;;
54263;SDS011;40178;53.042;6.406;2022-07-10T12:53:09;5.40;;;1.42;;
54263;SDS011;40178;53.042;6.406;2022-07-10T12:55:39;4.60;;;1.58;;
54263;SDS011;40178;53.042;6.406;2022-07-10T12:58:09;4.90;;;1.30;;
54263;SDS011;40178;53.042;6.406;2022-07-10T13:00:43;8.15;;;1.40;;
54263;SDS011;40178;53.042;6.406;2022-07-10T13:03:10;3.80;;;1.38;;
54263;SDS011;40178;53.042;6.406;2022-07-10T13:05:37;4.80;;;1.25;;
54263;SDS011;40178;53.042;6.406;2022-07-10T13:10:44;5.15;;;1.30;;
54263;SDS011;40178;53.042;6.406;2022-07-10T13:13:11;3.92;;;1.30;;
54263;SDS011;40178;53.042;6.406;2022-07-10T13:15:37;8.80;;;2.13;;
54263;SDS011;40178;53.042;6.406;2022-07-10T13:18:14;5.50;;;1.48;;
54263;SDS011;40178;53.042;6.406;2022-07-10T13:20:42;7.03;;;1.58;;
54263;SDS011;40178;53.042;6.406;2022-07-10T13:23:08;6.90;;;1.73;;
54263;SDS011;40178;53.042;6.406;2022-07-10T13:25:34;4.85;;;1.42;;
54263;SDS011;40178;53.042;6.406;2022-07-10T13:28:00;6.13;;;1.63;;
54263;SDS011;40178;53.042;6.406;2022-07-10T13:30:27;4.57;;;1.58;;
54263;SDS011;40178;53.042;6.406;2022-07-10T13:32:53;4.45;;;1.50;;
54263;SDS011;40178;53.042;6.406;2022-07-10T13:35:19;6.97;;;1.52;;
54263;SDS011;40178;53.042;6.406;2022-07-10T13:37:45;4.82;;;1.55;;
54263;SDS011;40178;53.042;6.406;2022-07-10T13:40:12;5.50;;;1.63;;
54263;SDS011;40178;53.042;6.406;2022-07-10T13:42:38;5.05;;;1.27;;
54263;SDS011;40178;53.042;6.406;2022-07-10T13:45:04;3.92;;;1.40;;
54263;SDS011;40178;53.042;6.406;2022-07-10T13:47:30;4.68;;;1.35;;
54263;SDS011;40178;53.042;6.406;2022-07-10T13:49:56;5.88;;;1.73;;
54263;SDS011;40178;53.042;6.406;2022-07-10T13:52:22;4.40;;;1.35;;
54263;SDS011;40178;53.042;6.406;2022-07-10T13:54:48;6.03;;;1.38;;
54263;SDS011;40178;53.042;6.406;2022-07-10T13:57:14;5.10;;;1.30;;
54263;SDS011;40178;53.042;6.406;2022-07-10T13:59:40;4.22;;;1.30;;
54263;SDS011;40178;53.042;6.406;2022-07-10T14:02:06;4.93;;;1.05;;
54263;SDS011;40178;53.042;6.406;2022-07-10T14:04:32;3.72;;;1.27;;
54263;SDS011;40178;53.042;6.406;2022-07-10T14:06:58;4.20;;;1.20;;
54263;SDS011;40178;53.042;6.406;2022-07-10T14:09:24;7.47;;;1.23;;
54263;SDS011;40178;53.042;6.406;2022-07-10T14:11:51;4.50;;;1.73;;
54263;SDS011;40178;53.042;6.406;2022-07-10T14:14:17;5.43;;;1.30;;
54263;SDS011;40178;53.042;6.406;2022-07-10T14:16:43;5.78;;;1.20;;
54263;SDS011;40178;53.042;6.406;2022-07-10T14:19:09;3.90;;;1.25;;
54263;SDS011;40178;53.042;6.406;2022-07-10T14:21:35;4.45;;;1.35;;
54263;SDS011;40178;53.042;6.406;2022-07-10T14:24:03;4.15;;;1.20;;
54263;SDS011;40178;53.042;6.406;2022-07-10T14:26:29;6.22;;;1.35;;
54263;SDS011;40178;53.042;6.406;2022-07-10T14:28:56;5.88;;;1.23;;
54263;SDS011;40178;53.042;6.406;2022-07-10T14:31:22;4.50;;;1.15;;
54263;SDS011;40178;53.042;6.406;2022-07-10T14:33:48;3.33;;;1.20;;
54263;SDS011;40178;53.042;6.406;2022-07-10T14:36:14;5.20;;;1.90;;
54263;SDS011;40178;53.042;6.406;2022-07-10T14:38:40;3.83;;;1.30;;
54263;SDS011;40178;53.042;6.406;2022-07-10T14:41:06;6.22;;;1.20;;
54263;SDS011;40178;53.042;6.406;2022-07-10T14:43:32;5.53;;;1.30;;
54263;SDS011;40178;53.042;6.406;2022-07-10T14:46:00;5.03;;;1.30;;
54263;SDS011;40178;53.042;6.406;2022-07-10T14:48:32;6.03;;;1.42;;
54263;SDS011;40178;53.042;6.406;2022-07-10T14:50:59;4.35;;;1.20;;
54263;SDS011;40178;53.042;6.406;2022-07-10T14:53:25;6.03;;;1.08;;
54263;SDS011;40178;53.042;6.406;2022-07-10T14:55:51;3.50;;;0.90;;
54263;SDS011;40178;53.042;6.406;2022-07-10T14:58:17;2.22;;;0.90;;
54263;SDS011;40178;53.042;6.406;2022-07-10T15:00:43;3.45;;;0.85;;
54263;SDS011;40178;53.042;6.406;2022-07-10T15:03:09;3.60;;;1.08;;
54263;SDS011;40178;53.042;6.406;2022-07-10T15:05:35;3.63;;;1.02;;
54263;SDS011;40178;53.042;6.406;2022-07-10T15:08:01;5.15;;;1.10;;
54263;SDS011;40178;53.042;6.406;2022-07-10T15:10:28;3.33;;;0.90;;